メインページ
METAR-TAF:

METAR-TAF

空港 :

ペルシア湾空港

Asaluyeh, イラン

緯度: 27-22-46N, 経度: 52-44-15E, 海抜: 8m

現時点の気象観測

当レポートは27分前の11:00(UTC)に作成
北西の風 6kt
気温 29°C
湿度 48%
気圧 1013 hPa
視程10km以上
1,500メートル以下は雲なし、積乱雲なし

METAR: OIBP 191100Z 31006KT CAVOK 29/17 Q1013 A2992

時間: 14:57 (11:27 UTC)


TAF: 見つかりません

4,000以上の空港の気象観測と天気予報(METAR報とTAF報)

利用可能な観測所は地図上に黄色い丸と赤い丸で示す。

丸の上にカーソルを重ねると観測所名を参照できる。

次にクリックすると気象観測と天気予報を参照できる。

マップの切り替え:黒色「×」印の緑ボタンをクリックして拡大、「-」印の緑ボタンをクリックして縮小、緑色の三角印をクリックして隣りの地図に切り替え


METAR-TAF: